Time;durP1;ratioP1;P1;durP2;ratioP2;P2;SDS_P1;SDS_P2;PMS_P1;PMS_P2;Temp;Humidity;BMP_temperature;BMP_pressure;BME280_temperature;BME280_humidity;BME280_pressure;Samples;Min_cycle;Max_cycle;Signal;HPM_P1;HPM_P2
2023/09/18 00:01:00;;;;;;;8.35;5.63;;;;;;;13.35;78.87;99987.00;5081179;28;20091;-51
2023/09/18 00:03:26;;;;;;;7.60;5.18;;;;;;;13.20;78.30;99961.50;5071677;28;20049;-54
2023/09/18 00:05:52;;;;;;;10.07;5.00;;;;;;;13.36;78.35;99983.47;5078678;28;20048;-50
2023/09/18 00:08:19;;;;;;;8.95;4.82;;;;;;;13.33;78.08;99986.22;5069256;28;20063;-51
2023/09/18 00:10:48;;;;;;;7.88;4.78;;;;;;;13.34;77.88;99984.47;5082855;28;20040;-54
2023/09/18 00:13:13;;;;;;;9.00;5.20;;;;;;;13.23;77.64;99984.91;5062337;28;20131;-55
2023/09/18 00:15:41;;;;;;;6.57;4.68;;;;;;;13.10;77.79;99971.44;5048692;28;20128;-48
2023/09/18 00:18:07;;;;;;;8.23;4.55;;;;;;;13.14;77.72;99990.47;5070011;28;20032;-51
2023/09/18 00:20:35;;;;;;;11.60;6.43;;;;;;;13.06;78.20;99985.53;5071479;28;20035;-54
2023/09/18 00:23:01;;;;;;;8.45;4.35;;;;;;;13.04;78.22;99983.88;5072246;28;20131;-52
2023/09/18 00:25:27;;;;;;;7.05;3.63;;;;;;;13.03;78.38;99985.66;5073038;28;20094;-53
2023/09/18 00:27:53;;;;;;;5.38;3.80;;;;;;;12.87;78.17;99952.41;5075442;28;20127;-52
2023/09/18 00:30:19;;;;;;;7.50;4.88;;;;;;;13.04;77.91;99979.53;5069236;28;20039;-51
2023/09/18 00:32:46;;;;;;;6.60;4.38;;;;;;;13.00;77.99;99962.28;5061465;28;20039;-55
2023/09/18 00:35:13;;;;;;;7.57;4.30;;;;;;;13.13;77.69;99984.44;5081132;28;20046;-52
2023/09/18 00:37:39;;;;;;;7.53;4.47;;;;;;;13.25;77.35;99995.28;5067195;28;20810;-52
2023/09/18 00:40:06;;;;;;;6.57;4.00;;;;;;;13.25;76.90;99990.91;5075787;28;20692;-55
2023/09/18 00:42:32;;;;;;;6.95;4.30;;;;;;;13.29;76.79;99995.13;5074528;28;20123;-52
2023/09/18 00:44:58;;;;;;;6.72;4.28;;;;;;;13.06;76.73;99951.59;5072503;28;20126;-53
2023/09/18 00:47:24;;;;;;;8.23;3.72;;;;;;;13.34;76.33;99990.56;5069697;28;20044;-51
2023/09/18 00:49:51;;;;;;;6.82;3.83;;;;;;;13.35;76.09;99988.75;5067789;28;20471;-53
2023/09/18 00:52:17;;;;;;;5.07;3.10;;;;;;;13.36;75.84;99993.06;5078496;28;20069;-54
2023/09/18 00:54:44;;;;;;;7.47;4.28;;;;;;;13.34;75.87;99982.72;5058754;28;20036;-54
2023/09/18 00:57:10;;;;;;;5.75;3.80;;;;;;;13.34;75.83;99980.09;5068728;28;20044;-54
2023/09/18 00:59:37;;;;;;;6.65;3.67;;;;;;;13.34;75.56;99977.50;5065519;28;20037;-48
2023/09/18 01:02:03;;;;;;;7.57;4.25;;;;;;;13.33;75.52;99978.41;5062147;28;20066;-49
2023/09/18 01:04:32;;;;;;;8.00;4.07;;;;;;;13.30;75.46;99978.50;5065420;28;20041;-50
2023/09/18 01:07:04;;;;;;;7.15;4.07;;;;;;;13.26;75.68;99974.31;5096703;28;20060;-51
2023/09/18 01:09:33;;;;;;;7.78;4.15;;;;;;;13.25;75.73;99969.16;5060325;28;20838;-55
2023/09/18 01:12:02;;;;;;;;;;;;;;;13.27;75.78;99962.13;5072576;28;20051;-50
2023/09/18 01:14:44;;;;;;;7.38;4.18;;;;;;;13.21;75.75;99960.59;5073457;28;20284;-53
2023/09/18 01:17:10;;;;;;;5.60;3.85;;;;;;;13.21;75.77;99957.16;5067996;28;20068;-54
2023/09/18 01:19:40;;;;;;;6.97;3.92;;;;;;;13.15;76.04;99950.41;5054973;28;20160;-50
2023/09/18 01:22:09;;;;;;;6.30;3.78;;;;;;;13.13;76.20;99960.09;5079348;28;20040;-52
2023/09/18 01:24:36;;;;;;;6.15;3.55;;;;;;;13.11;76.31;99957.53;5076767;28;20036;-51
2023/09/18 01:27:06;;;;;;;5.95;3.88;;;;;;;13.07;76.41;99958.53;5072415;28;20110;-54
2023/09/18 01:29:32;;;;;;;5.95;3.75;;;;;;;12.94;76.59;99935.56;5069944;28;20070;-50
2023/09/18 01:31:58;;;;;;;7.30;3.22;;;;;;;13.01;76.83;99952.69;5073145;28;20036;-50
2023/09/18 01:34:33;;;;;;;5.82;3.70;;;;;;;12.97;77.14;99951.13;5077530;28;20040;-53
2023/09/18 01:37:00;;;;;;;5.10;3.90;;;;;;;12.92;77.24;99953.06;5078723;28;20082;-53
2023/09/18 01:39:31;;;;;;;7.40;4.00;;;;;;;12.89;77.41;99946.19;5055063;28;20802;-51
2023/09/18 01:42:02;;;;;;;9.27;4.00;;;;;;;12.93;77.47;99939.94;5092554;28;20511;-50
2023/09/18 01:44:29;;;;;;;6.95;4.10;;;;;;;12.96;77.49;99944.22;5035727;28;20040;-50
2023/09/18 01:46:56;;;;;;;9.02;4.38;;;;;;;12.79;77.46;99908.34;5073745;28;20054;-50
2023/09/18 01:49:29;;;;;;;5.68;3.83;;;;;;;12.96;77.42;99939.84;5072173;28;20683;-49
2023/09/18 01:51:56;;;;;;;6.38;3.90;;;;;;;12.98;77.73;99942.41;5076383;28;20100;-53
2023/09/18 01:54:22;;;;;;;6.45;3.78;;;;;;;12.99;77.73;99939.69;5074965;28;20043;-51
2023/09/18 01:56:47;;;;;;;5.72;3.80;;;;;;;13.00;77.56;99937.94;5075931;28;20040;-49
2023/09/18 01:59:13;;;;;;;8.98;3.83;;;;;;;12.88;77.88;99899.28;5072180;28;20037;-54
2023/09/18 02:01:39;;;;;;;6.68;4.18;;;;;;;13.06;77.55;99925.50;5075185;28;20051;-55
2023/09/18 02:04:05;;;;;;;8.75;3.60;;;;;;;12.98;77.38;99895.41;5059962;28;20081;-51
2023/09/18 02:06:31;;;;;;;5.00;3.58;;;;;;;12.99;77.30;99900.56;5077518;28;20052;-50
2023/09/18 02:08:57;;;;;;;6.18;4.15;;;;;;;13.18;77.16;99923.34;5058210;28;20040;-49
2023/09/18 02:11:23;;;;;;;8.30;3.85;;;;;;;13.11;77.29;99910.53;5068507;28;20040;-53
2023/09/18 02:13:48;;;;;;;6.18;3.85;;;;;;;13.18;77.24;99913.75;5042822;28;20428;-54
2023/09/18 02:16:17;;;;;;;4.88;3.53;;;;;;;13.19;77.35;99915.44;5068943;28;20040;-54
2023/09/18 02:18:43;;;;;;;7.65;4.40;;;;;;;13.16;77.43;99915.56;5078711;28;20126;-51
2023/09/18 02:21:09;;;;;;;8.52;3.95;;;;;;;13.14;77.43;99914.75;5058304;28;20543;-50
2023/09/18 02:23:36;;;;;;;6.63;3.75;;;;;;;13.08;77.44;99908.00;5075386;28;20052;-52
2023/09/18 02:26:01;;;;;;;6.30;4.22;;;;;;;13.03;77.85;99911.75;5076632;28;20047;-54
2023/09/18 02:28:31;;;;;;;6.00;3.83;;;;;;;12.98;78.37;99918.91;5078524;28;20046;-53
2023/09/18 02:30:58;;;;;;;8.02;3.88;;;;;;;12.96;78.83;99918.09;5061259;28;20083;-50
2023/09/18 02:33:24;;;;;;;9.95;3.42;;;;;;;12.95;79.11;99913.78;5074981;28;20032;-48
2023/09/18 02:35:50;;;;;;;6.80;4.20;;;;;;;12.96;79.20;99918.97;5066148;28;20543;-50
2023/09/18 02:38:16;;;;;;;6.90;4.10;;;;;;;13.00;79.36;99907.47;5078477;28;20520;-50
2023/09/18 02:40:42;;;;;;;9.73;4.18;;;;;;;13.04;79.27;99910.81;5067449;28;20421;-52
2023/09/18 02:43:08;;;;;;;8.98;4.57;;;;;;;13.07;79.26;99914.16;5076367;28;20074;-50
2023/09/18 02:45:33;;;;;;;9.88;4.30;;;;;;;13.06;79.12;99909.00;5074890;28;20071;-52
2023/09/18 02:47:59;;;;;;;6.85;4.30;;;;;;;13.08;79.08;99907.19;5075160;28;20535;-49
2023/09/18 02:50:25;;;;;;;7.93;4.15;;;;;;;12.93;78.96;99873.84;5072203;28;20036;-49
2023/09/18 02:52:51;;;;;;;8.63;4.03;;;;;;;13.12;79.02;99904.41;5057502;28;20062;-52
2023/09/18 02:55:17;;;;;;;7.05;3.72;;;;;;;13.13;79.20;99908.72;5074837;28;20524;-48
2023/09/18 02:57:43;;;;;;;6.32;3.67;;;;;;;13.19;78.94;99918.03;5064513;28;20184;-52
2023/09/18 03:00:09;;;;;;;5.65;3.58;;;;;;;13.23;79.11;99910.94;5071165;28;20039;-53
2023/09/18 03:02:35;;;;;;;5.18;3.58;;;;;;;13.12;79.00;99898.34;5067261;28;20047;-51
2023/09/18 03:05:01;;;;;;;5.53;2.95;;;;;;;13.31;78.83;99914.06;5050934;28;20044;-51
2023/09/18 03:07:30;;;;;;;9.50;3.85;;;;;;;13.12;78.72;99890.50;5091269;28;20055;-54
2023/09/18 03:09:56;;;;;;;6.10;3.55;;;;;;;13.22;78.78;99897.03;5054718;28;20128;-52
2023/09/18 03:12:22;;;;;;;6.30;3.33;;;;;;;13.36;78.60;99914.72;5066387;28;20128;-53
2023/09/18 03:14:48;;;;;;;5.63;3.42;;;;;;;13.32;78.56;99900.97;5069998;28;20119;-50
2023/09/18 03:17:14;;;;;;;7.80;3.85;;;;;;;13.32;78.83;99908.78;5070533;28;20052;-54
2023/09/18 03:19:40;;;;;;;5.22;3.20;;;;;;;13.34;78.59;99912.19;5070616;28;20078;-53
2023/09/18 03:22:06;;;;;;;6.07;4.20;;;;;;;13.30;78.88;99918.44;5068693;28;20131;-48
2023/09/18 03:24:32;;;;;;;8.80;3.92;;;;;;;13.27;78.95;99909.91;5070617;28;20066;-52
2023/09/18 03:26:58;;;;;;;6.10;3.60;;;;;;;13.26;79.05;99916.03;5052572;28;20070;-54
2023/09/18 03:29:24;;;;;;;8.55;3.40;;;;;;;13.22;79.21;99910.09;5068863;28;20075;-49
2023/09/18 03:31:50;;;;;;;8.90;4.30;;;;;;;13.22;79.33;99915.31;5070993;28;20058;-52
2023/09/18 03:34:17;;;;;;;8.18;3.83;;;;;;;12.93;79.60;99869.47;5078580;28;20059;-52
2023/09/18 03:36:42;;;;;;;10.32;3.90;;;;;;;13.26;79.47;99916.88;5052596;28;20044;-49
2023/09/18 03:39:09;;;;;;;6.03;3.72;;;;;;;13.31;79.37;99908.84;5081329;28;20090;-54
2023/09/18 03:41:35;;;;;;;7.38;4.15;;;;;;;13.30;79.42;99910.63;5069305;28;20041;-52
2023/09/18 03:44:02;;;;;;;6.03;4.05;;;;;;;13.19;79.21;99884.09;5062769;28;20447;-52
2023/09/18 03:46:28;;;;;;;7.10;4.13;;;;;;;13.32;79.11;99906.19;5080550;28;20032;-52
2023/09/18 03:48:55;;;;;;;11.27;4.30;;;;;;;13.31;79.39;99912.31;5057558;28;20044;-53
2023/09/18 03:51:21;;;;;;;9.93;4.05;;;;;;;13.19;79.27;99889.31;5085411;28;20570;-55
2023/09/18 03:53:48;;;;;;;5.20;3.88;;;;;;;13.14;79.40;99883.44;5072989;28;20048;-56
2023/09/18 03:56:14;;;;;;;7.95;4.80;;;;;;;13.31;79.33;99914.06;5082883;28;20048;-53
2023/09/18 03:58:40;;;;;;;5.97;4.40;;;;;;;13.37;79.10;99917.28;5075147;28;20048;-56
2023/09/18 04:01:07;;;;;;;10.80;3.53;;;;;;;13.38;79.08;99897.25;5078417;28;20142;-54
2023/09/18 04:03:33;;;;;;;6.95;4.10;;;;;;;13.37;79.01;99891.16;5072328;28;20035;-54
2023/09/18 04:05:59;;;;;;;4.13;3.13;;;;;;;13.43;79.04;99900.50;5046069;28;20041;-52
2023/09/18 04:08:26;;;;;;;6.57;4.03;;;;;;;13.41;79.07;99897.09;5052829;28;20509;-54
2023/09/18 04:10:55;;;;;;;6.82;4.07;;;;;;;13.39;79.14;99896.34;5049451;28;20059;-52
2023/09/18 04:13:21;;;;;;;6.72;4.25;;;;;;;13.43;79.27;99900.50;5034888;28;20800;-54
2023/09/18 04:15:47;;;;;;;6.07;3.90;;;;;;;13.48;79.16;99895.94;5074829;28;20036;-52
2023/09/18 04:18:13;;;;;;;7.65;4.22;;;;;;;13.47;79.06;99896.84;5079504;28;20446;-51
2023/09/18 04:20:39;;;;;;;6.75;4.03;;;;;;;13.52;78.94;99903.56;5070496;28;20051;-51
2023/09/18 04:23:26;;;;;;;4.47;3.30;;;;;;;13.65;78.80;99906.53;5095690;28;20435;-54
2023/09/18 04:25:53;;;;;;;8.20;3.88;;;;;;;13.64;78.60;99902.22;5058395;28;20041;-54
2023/09/18 04:28:20;;;;;;;6.22;4.40;;;;;;;13.69;78.56;99904.63;5059337;28;20051;-49
2023/09/18 04:30:46;;;;;;;6.65;4.00;;;;;;;13.78;78.20;99897.22;5062771;28;20051;-50
2023/09/18 04:33:16;;;;;;;6.60;4.18;;;;;;;13.82;77.98;99897.91;5072487;28;20041;-54
2023/09/18 04:35:43;;;;;;;7.15;4.00;;;;;;;13.89;77.67;99896.75;5067235;28;20491;-52
2023/09/18 04:38:16;;;;;;;6.75;3.80;;;;;;;13.93;77.57;99906.13;5045865;28;20043;-54
2023/09/18 04:40:43;;;;;;;6.43;4.13;;;;;;;13.91;77.40;99911.47;5072843;28;20048;-54
2023/09/18 04:43:09;;;;;;;7.47;4.35;;;;;;;13.91;77.51;99908.00;5066890;28;20182;-51
2023/09/18 04:45:35;;;;;;;6.85;4.20;;;;;;;13.74;77.21;99873.91;5068072;28;20036;-53
2023/09/18 04:48:01;;;;;;;7.95;3.92;;;;;;;13.80;77.80;99897.16;5052131;28;20066;-53
2023/09/18 04:50:26;;;;;;;7.00;3.70;;;;;;;13.55;78.11;99876.47;5066098;28;20051;-53
2023/09/18 04:52:54;;;;;;;13.63;4.75;;;;;;;13.69;78.39;99902.84;5064297;28;20520;-53
2023/09/18 04:55:21;;;;;;;8.57;4.03;;;;;;;13.76;78.59;99904.28;5066383;28;20064;-52
2023/09/18 04:57:47;;;;;;;7.30;4.70;;;;;;;13.78;78.41;99905.06;5047376;28;20531;-50
2023/09/18 05:00:13;;;;;;;7.30;4.35;;;;;;;13.78;78.53;99906.81;5066687;28;20074;-56
2023/09/18 05:02:40;;;;;;;7.93;4.22;;;;;;;13.91;78.39;99908.84;5068138;28;20044;-52
2023/09/18 05:05:08;;;;;;;8.52;4.78;;;;;;;13.95;78.11;99918.25;5063559;28;20038;-49
2023/09/18 05:07:35;;;;;;;7.10;4.75;;;;;;;14.00;78.06;99908.44;5067313;28;20601;-53
2023/09/18 05:10:01;;;;;;;7.43;4.55;;;;;;;14.17;77.55;99917.28;5078139;28;20088;-53
2023/09/18 05:12:28;;;;;;;8.07;5.30;;;;;;;14.27;77.03;99910.72;5070490;28;20045;-50
2023/09/18 05:14:54;;;;;;;7.97;4.78;;;;;;;14.38;76.43;99914.56;5066733;28;20520;-51
2023/09/18 05:17:19;;;;;;;10.75;4.07;;;;;;;14.13;76.48;99881.75;5075609;28;20079;-55
2023/09/18 05:19:45;;;;;;;10.25;4.75;;;;;;;14.47;76.08;99912.44;5079135;28;20420;-54
2023/09/18 05:22:12;;;;;;;9.88;5.10;;;;;;;14.60;75.94;99921.44;5075379;28;20458;-53
2023/09/18 05:24:38;;;;;;;7.85;4.88;;;;;;;14.79;75.21;99919.63;5074008;28;20043;-48
2023/09/18 05:27:06;;;;;;;7.88;4.68;;;;;;;14.99;74.66;99927.34;5074775;28;20052;-54
2023/09/18 05:29:32;;;;;;;10.88;5.03;;;;;;;15.23;73.91;99920.91;5055706;28;20192;-51
2023/09/18 05:31:58;;;;;;;10.15;4.55;;;;;;;15.24;73.52;99900.81;5077490;28;20130;-53
2023/09/18 05:34:24;;;;;;;12.63;5.20;;;;;;;15.52;73.00;99922.13;5060883;28;20093;-51
2023/09/18 05:36:49;;;;;;;10.35;4.43;;;;;;;15.59;72.26;99926.13;5067361;28;20048;-52
2023/09/18 05:39:16;;;;;;;8.93;4.55;;;;;;;15.76;71.58;99921.78;5078323;28;20552;-56
2023/09/18 05:41:42;;;;;;;15.48;6.20;;;;;;;16.04;71.06;99925.50;5057872;28;20036;-51
2023/09/18 05:44:09;;;;;;;8.18;5.55;;;;;;;16.31;70.46;99917.94;5076040;28;20036;-47
2023/09/18 05:46:35;;;;;;;7.35;4.32;;;;;;;16.65;69.19;99916.09;5070364;28;20571;-51
2023/09/18 05:49:01;;;;;;;7.75;4.88;;;;;;;17.01;68.16;99905.34;5076582;28;20516;-52
2023/09/18 05:51:27;;;;;;;9.48;4.20;;;;;;;17.49;66.53;99910.34;5078799;28;20044;-51
2023/09/18 05:53:53;;;;;;;10.75;4.00;;;;;;;17.72;65.25;99909.03;5064705;28;20110;-51
2023/09/18 05:56:19;;;;;;;9.35;4.53;;;;;;;18.04;63.74;99907.94;5074411;28;20039;-53
2023/09/18 05:58:44;;;;;;;9.80;4.30;;;;;;;18.39;62.17;99905.72;5078522;28;20080;-55
2023/09/18 06:01:10;;;;;;;11.18;4.75;;;;;;;18.21;62.04;99920.06;5071020;28;20428;-53
2023/09/18 06:03:36;;;;;;;7.75;4.45;;;;;;;18.21;61.88;99917.44;5072932;28;20045;-54
2023/09/18 06:06:03;;;;;;;11.18;4.18;;;;;;;18.15;62.02;99928.31;5083152;28;20118;-52
2023/09/18 06:08:30;;;;;;;9.02;4.70;;;;;;;18.12;62.04;99917.97;5071877;28;20145;-51
2023/09/18 06:10:57;;;;;;;8.05;4.10;;;;;;;17.83;61.87;99897.88;5074866;28;20079;-54
2023/09/18 06:13:25;;;;;;;8.60;4.07;;;;;;;17.83;62.15;99916.28;5070054;28;20518;-54
2023/09/18 06:15:54;;;;;;;10.30;4.60;;;;;;;17.59;62.35;99898.38;5074532;28;20040;-54
2023/09/18 06:18:20;;;;;;;10.98;4.75;;;;;;;17.74;62.29;99925.56;5072495;28;20594;-53
2023/09/18 06:20:47;;;;;;;7.65;4.93;;;;;;;17.76;62.26;99924.53;5078297;28;20048;-52
2023/09/18 06:23:13;;;;;;;8.55;4.22;;;;;;;17.73;62.09;99921.25;5067412;28;20047;-53
2023/09/18 06:25:40;;;;;;;7.60;4.30;;;;;;;17.60;62.17;99925.53;5067169;28;20644;-53
2023/09/18 06:28:06;;;;;;;7.53;4.47;;;;;;;17.27;62.68;99881.84;5062344;28;20572;-53
2023/09/18 06:30:33;;;;;;;8.10;4.32;;;;;;;17.29;63.02;99916.78;5090430;28;20036;-53
2023/09/18 06:33:00;;;;;;;7.07;3.90;;;;;;;17.30;63.28;99929.00;5053505;28;20040;-55
2023/09/18 06:35:26;;;;;;;9.88;4.53;;;;;;;17.24;63.63;99921.47;5074545;28;20465;-53
2023/09/18 06:37:54;;;;;;;7.95;4.32;;;;;;;17.28;63.58;99930.00;5075299;28;20040;-54
2023/09/18 06:40:19;;;;;;;5.60;4.63;;;;;;;17.30;63.97;99930.78;5071303;28;20047;-54
2023/09/18 06:42:45;;;;;;;6.55;4.15;;;;;;;17.04;63.87;99885.00;5077677;28;20036;-52
2023/09/18 06:45:12;;;;;;;8.73;4.47;;;;;;;17.11;64.30;99933.63;5066633;28;20036;-51
2023/09/18 06:47:40;;;;;;;6.72;4.10;;;;;;;16.97;64.38;99930.06;5075865;28;20482;-51
2023/09/18 06:50:06;;;;;;;11.40;5.88;;;;;;;16.91;65.16;99932.09;5073147;28;20484;-53
2023/09/18 06:52:32;;;;;;;7.63;4.30;;;;;;;16.96;65.11;99941.53;5079407;28;20051;-54
2023/09/18 06:54:58;;;;;;;8.27;4.30;;;;;;;16.93;65.36;99948.63;5064448;28;20041;-54
2023/09/18 06:57:24;;;;;;;7.97;4.65;;;;;;;16.97;65.50;99956.34;5077719;28;20035;-51
2023/09/18 06:59:50;;;;;;;8.02;4.88;;;;;;;17.00;65.64;99954.41;5068751;28;20033;-52
2023/09/18 07:02:16;;;;;;;6.38;3.85;;;;;;;16.97;65.65;99958.97;5079236;28;20040;-53
2023/09/18 07:04:45;;;;;;;10.07;4.50;;;;;;;16.94;65.64;99957.38;5078195;28;20456;-53
2023/09/18 07:07:15;;;;;;;11.25;4.15;;;;;;;16.91;65.71;99961.00;5075553;28;20117;-53
2023/09/18 07:09:41;;;;;;;9.45;4.32;;;;;;;16.75;65.87;99943.56;5068685;28;20036;-50
2023/09/18 07:12:09;;;;;;;7.50;3.97;;;;;;;16.86;66.13;99962.19;5070302;28;20098;-52
2023/09/18 07:14:37;;;;;;;9.45;4.00;;;;;;;16.68;66.23;99944.84;5089465;28;20812;-53
2023/09/18 07:17:04;;;;;;;6.70;4.73;;;;;;;16.79;66.35;99974.84;5070432;28;20047;-55
2023/09/18 07:19:30;;;;;;;8.50;4.55;;;;;;;16.63;66.61;99946.88;5059981;28;20360;-50
2023/09/18 07:21:56;;;;;;;8.13;4.47;;;;;;;16.76;66.65;99961.00;5054240;28;20489;-53
2023/09/18 07:24:22;;;;;;;5.90;4.28;;;;;;;16.88;66.48;99976.94;5057757;28;20528;-49
2023/09/18 07:26:48;;;;;;;5.05;3.95;;;;;;;16.97;66.14;99980.81;5075372;28;20166;-54
2023/09/18 07:29:15;;;;;;;7.85;4.28;;;;;;;16.88;66.08;99955.09;5071052;28;20040;-50
2023/09/18 07:31:44;;;;;;;8.10;4.47;;;;;;;17.13;66.10;99986.06;5059184;28;20467;-54
2023/09/18 07:34:10;;;;;;;;;;;;;;;17.21;65.79;99982.09;5077184;28;20130;-54
2023/09/18 07:36:36;;;;;;;7.00;4.07;;;;;;;17.25;65.38;99980.97;5062445;28;20626;-52
2023/09/18 07:39:04;;;;;;;6.57;3.80;;;;;;;17.36;65.35;99977.75;5079415;28;20043;-53
2023/09/18 07:41:31;;;;;;;7.60;5.15;;;;;;;17.52;65.03;99986.44;5072669;28;20045;-52
2023/09/18 07:43:59;;;;;;;7.30;4.05;;;;;;;17.60;64.65;99984.22;5062494;28;20458;-52
2023/09/18 07:46:25;;;;;;;10.45;4.43;;;;;;;17.67;64.33;99987.34;5077690;28;20040;-53
2023/09/18 07:48:50;;;;;;;7.93;4.85;;;;;;;17.60;64.28;99989.47;5069313;28;20045;-52
2023/09/18 07:51:16;;;;;;;9.35;4.43;;;;;;;17.54;64.43;99979.28;5079065;28;20043;-50
2023/09/18 07:53:42;;;;;;;10.95;4.32;;;;;;;17.35;64.41;99989.19;5086191;28;20067;-54
2023/09/18 07:56:09;;;;;;;13.18;4.82;;;;;;;17.13;64.97;99967.69;5077548;28;20421;-53
2023/09/18 07:58:38;;;;;;;14.00;4.72;;;;;;;16.99;65.13;99943.97;5064280;28;20532;-48
2023/09/18 08:01:05;;;;;;;11.23;4.53;;;;;;;17.22;65.33;99977.66;5060490;28;20048;-51
2023/09/18 08:03:32;;;;;;;10.95;4.85;;;;;;;17.18;65.52;99981.41;5082284;28;20036;-54
2023/09/18 08:05:58;;;;;;;10.65;4.60;;;;;;;17.00;66.32;99983.31;5075620;28;20479;-50
2023/09/18 08:08:24;;;;;;;8.85;5.30;;;;;;;16.96;66.88;100001.94;5071791;28;20123;-51
2023/09/18 08:10:51;;;;;;;14.85;5.28;;;;;;;16.90;67.74;100000.50;5042607;28;20978;-53
2023/09/18 08:13:17;;;;;;;15.07;5.30;;;;;;;16.88;67.70;99969.06;5076087;28;20815;-52
2023/09/18 08:15:44;;;;;;;16.90;6.03;;;;;;;17.12;67.52;99995.72;5070739;28;20041;-52
2023/09/18 08:18:13;;;;;;;8.00;4.50;;;;;;;17.15;67.88;99994.72;5076344;28;20515;-53
2023/09/18 08:20:42;;;;;;;;;;;;;;;17.15;68.05;99998.19;5076555;28;20048;-53
2023/09/18 08:23:09;;;;;;;7.15;4.75;;;;;;;17.13;67.84;100007.09;5081200;28;19958;-54
2023/09/18 08:25:35;;;;;;;8.13;5.05;;;;;;;17.11;68.14;99995.84;5068994;28;20586;-52
2023/09/18 08:28:01;;;;;;;11.40;5.80;;;;;;;17.01;68.45;99979.72;5078715;28;20478;-53
2023/09/18 08:30:27;;;;;;;11.82;5.75;;;;;;;17.13;68.36;99984.28;5074540;28;20095;-53
2023/09/18 08:32:53;;;;;;;7.50;4.50;;;;;;;17.27;68.25;99981.72;5071800;28;20516;-53
2023/09/18 08:35:19;;;;;;;9.05;4.95;;;;;;;17.47;67.69;99980.59;5076169;28;20044;-51
2023/09/18 08:37:45;;;;;;;7.63;5.30;;;;;;;17.63;67.24;99984.06;5078409;28;20123;-56
2023/09/18 08:40:13;;;;;;;9.63;4.80;;;;;;;17.86;66.56;99984.47;5076489;28;20135;-56
2023/09/18 08:42:44;;;;;;;7.50;4.78;;;;;;;18.01;65.91;99984.41;5078271;28;20036;-55
2023/09/18 08:45:33;;;;;;;7.50;5.05;;;;;;;18.15;65.40;99973.91;5079506;28;20059;-53
2023/09/18 08:47:59;;;;;;;13.80;5.88;;;;;;;18.27;65.10;99969.66;5061351;28;20055;-53
2023/09/18 08:50:25;;;;;;;8.65;4.97;;;;;;;18.29;64.89;99975.69;5063348;28;20511;-52
2023/09/18 08:52:51;;;;;;;8.02;4.95;;;;;;;18.09;64.73;99945.34;5074405;28;20102;-55
2023/09/18 08:55:17;;;;;;;8.35;4.85;;;;;;;18.03;64.36;99944.84;5073671;28;20795;-54
2023/09/18 08:57:46;;;;;;;6.60;4.65;;;;;;;18.19;64.63;99995.63;5067138;28;20051;-56
2023/09/18 09:00:16;;;;;;;12.55;4.85;;;;;;;18.12;64.80;99991.66;5074302;28;20058;-57
2023/09/18 09:02:44;;;;;;;7.82;5.00;;;;;;;18.09;64.77;99997.09;5072831;28;20409;-56
2023/09/18 09:05:10;;;;;;;6.95;5.10;;;;;;;18.02;64.71;100001.88;5075526;28;20101;-57
2023/09/18 09:07:36;;;;;;;8.35;5.18;;;;;;;17.99;64.81;99985.44;5057718;28;20076;-56
2023/09/18 09:10:02;;;;;;;7.22;5.15;;;;;;;17.97;64.96;99992.56;5059498;28;20423;-53
2023/09/18 09:12:55;;;;;;;7.30;5.30;;;;;;;17.97;64.85;100003.94;5047125;28;20048;-53
2023/09/18 09:15:23;;;;;;;5.90;4.70;;;;;;;17.89;65.11;99998.31;5038883;28;20524;-54
2023/09/18 09:17:52;;;;;;;13.80;5.32;;;;;;;17.78;65.50;100005.97;5070295;28;20128;-56
2023/09/18 09:20:18;;;;;;;8.63;5.10;;;;;;;17.70;65.92;100009.03;5059162;28;20040;-53
2023/09/18 09:22:44;;;;;;;7.65;5.00;;;;;;;17.42;66.41;99966.88;5052652;28;20040;-53
2023/09/18 09:25:33;;;;;;;12.23;5.50;;;;;;;17.61;66.53;100006.97;5060096;28;20041;-52
2023/09/18 09:28:01;;;;;;;8.13;4.97;;;;;;;17.59;66.71;100013.19;5057290;28;20094;-55
2023/09/18 09:30:28;;;;;;;9.07;5.45;;;;;;;17.54;67.03;100018.72;5056684;28;20066;-56
2023/09/18 09:32:55;;;;;;;9.85;5.07;;;;;;;17.51;67.44;100018.06;5055534;28;20527;-57
2023/09/18 09:35:29;;;;;;;12.40;5.03;;;;;;;17.40;67.81;100023.94;5060219;28;20036;-57
2023/09/18 09:38:01;;;;;;;7.22;4.72;;;;;;;17.26;68.45;99993.19;5059189;28;20036;-54
2023/09/18 09:40:28;;;;;;;12.25;5.22;;;;;;;17.23;68.81;100000.38;5055427;28;20043;-54
2023/09/18 09:43:00;;;;;;;8.13;4.78;;;;;;;17.27;69.40;99994.84;5033590;28;20132;-54
2023/09/18 09:45:28;;;;;;;7.03;4.90;;;;;;;17.46;69.43;99989.41;5060306;28;20055;-52
2023/09/18 09:47:55;;;;;;;6.78;4.60;;;;;;;17.61;69.19;99962.25;5057815;28;20420;-55
2023/09/18 09:50:21;;;;;;;11.32;5.43;;;;;;;17.95;68.67;99984.75;5055546;28;20040;-54
2023/09/18 09:52:49;;;;;;;6.80;4.63;;;;;;;18.00;68.50;99998.53;5049061;28;20044;-54
2023/09/18 09:55:22;;;;;;;9.50;5.32;;;;;;;17.95;68.63;99986.56;5049244;28;20040;-53
2023/09/18 09:57:54;;;;;;;8.93;5.32;;;;;;;18.01;68.41;99988.81;5054635;28;20047;-56
2023/09/18 10:00:36;;;;;;;9.70;5.15;;;;;;;18.35;67.75;99990.25;5042218;28;20032;-53
2023/09/18 10:03:04;;;;;;;5.97;4.82;;;;;;;18.74;66.54;100003.59;5051234;28;20114;-55
2023/09/18 10:05:34;;;;;;;6.70;4.68;;;;;;;19.15;65.16;100001.00;5059167;28;20894;-56
2023/09/18 10:08:03;;;;;;;6.80;4.63;;;;;;;19.25;64.22;100011.78;5076743;28;20041;-54
2023/09/18 10:10:30;;;;;;;;;;;;;;;19.14;64.46;100011.63;5079266;28;20089;-53
2023/09/18 10:13:01;;;;;;;4.70;3.63;;;;;;;18.72;64.64;100008.16;5070691;28;19916;-55
2023/09/18 10:15:28;;;;;;;5.80;4.07;;;;;;;18.48;65.00;100020.16;5069143;28;20121;-56
2023/09/18 10:17:55;;;;;;;7.85;4.30;;;;;;;18.17;65.59;100008.84;5058795;28;20040;-52
2023/09/18 10:20:26;;;;;;;4.95;4.18;;;;;;;18.26;65.91;100012.75;5079811;28;20047;-58
2023/09/18 10:22:57;;;;;;;7.28;5.10;;;;;;;18.42;65.77;100010.84;5060573;28;20039;-55
2023/09/18 10:25:31;;;;;;;7.45;4.82;;;;;;;18.44;65.35;99982.63;5057817;28;20052;-55
2023/09/18 10:28:02;;;;;;;5.40;3.92;;;;;;;18.82;65.22;100006.63;5069775;28;20101;-55
2023/09/18 10:30:29;;;;;;;6.68;4.00;;;;;;;18.92;64.70;100017.41;5058557;28;20040;-53
2023/09/18 10:32:57;;;;;;;6.55;4.10;;;;;;;19.05;64.33;100013.06;5054569;28;20043;-56
2023/09/18 10:35:23;;;;;;;6.32;4.22;;;;;;;19.32;63.90;100013.06;5074930;28;20059;-57
2023/09/18 10:37:53;;;;;;;4.03;2.90;;;;;;;19.81;62.23;100008.06;5074894;28;20500;-55
2023/09/18 10:40:20;;;;;;;4.95;3.30;;;;;;;20.03;61.22;100008.31;5077854;28;20036;-56
2023/09/18 10:42:48;;;;;;;4.85;3.20;;;;;;;21.32;58.77;100001.78;5056630;28;20047;-56
2023/09/18 10:45:15;;;;;;;3.95;2.95;;;;;;;22.30;55.71;99956.34;5053037;28;20028;-55
2023/09/18 10:47:46;;;;;;;4.63;3.00;;;;;;;22.69;54.74;100007.16;5058222;28;20037;-54
2023/09/18 10:50:23;;;;;;;5.72;3.15;;;;;;;21.79;54.63;99958.53;5060936;28;20173;-54
2023/09/18 10:52:49;;;;;;;4.38;3.47;;;;;;;21.74;55.46;100003.03;5073516;28;20062;-51
2023/09/18 10:55:16;;;;;;;4.80;3.45;;;;;;;21.96;55.03;99997.00;5068297;28;20502;-53
2023/09/18 10:57:56;;;;;;;7.32;3.75;;;;;;;21.94;54.71;99999.75;5054795;28;20044;-53
2023/09/18 11:00:25;;;;;;;5.38;3.53;;;;;;;21.92;54.33;99995.53;5054738;28;20045;-53
2023/09/18 11:03:08;;;;;;;4.72;3.17;;;;;;;21.51;54.95;99994.16;5059385;28;20097;-54
2023/09/18 11:05:35;;;;;;;5.38;3.70;;;;;;;21.12;55.57;99989.16;5074468;28;20080;-53
2023/09/18 11:08:26;;;;;;;6.85;3.83;;;;;;;20.94;56.10;99990.47;5076051;28;20048;-52
2023/09/18 11:11:09;;;;;;;7.10;4.43;;;;;;;20.70;56.70;99996.56;5078420;28;20044;-55
2023/09/18 11:13:38;;;;;;;7.78;3.70;;;;;;;20.43;57.27;100006.44;5075242;28;20037;-54
2023/09/18 11:16:21;;;;;;;5.40;3.55;;;;;;;20.10;57.99;100006.94;5079342;28;20123;-52
2023/09/18 11:18:50;;;;;;;5.47;3.80;;;;;;;19.90;58.55;100004.81;5081802;28;20043;-55
2023/09/18 11:21:17;;;;;;;;;;;;;;;19.78;58.66;99997.75;5078899;28;20131;-54
2023/09/18 11:23:43;;;;;;;6.60;3.85;;;;;;;19.58;59.40;99999.03;5069811;28;19916;-55
2023/09/18 11:26:10;;;;;;;7.68;4.32;;;;;;;19.43;59.74;100003.50;5079384;28;20052;-54
2023/09/18 11:28:37;;;;;;;6.55;4.30;;;;;;;19.22;60.52;100004.91;5068787;28;20768;-52
2023/09/18 11:31:03;;;;;;;6.47;4.25;;;;;;;19.23;60.60;100005.75;5079304;28;20055;-54
2023/09/18 11:33:33;;;;;;;9.13;5.05;;;;;;;19.04;60.91;99980.59;5053548;28;20044;-53